sensor_id;sensor_type;location;lat;lon;timestamp;P1;durP1;ratioP1;P2;durP2;ratioP2
43248;SDS011;29216;51.248;6.808;2024-02-14T00:01:55;6.18;;;3.58;;
43248;SDS011;29216;51.248;6.808;2024-02-14T00:04:21;5.03;;;3.05;;
43248;SDS011;29216;51.248;6.808;2024-02-14T00:06:47;6.03;;;3.00;;
43248;SDS011;29216;51.248;6.808;2024-02-14T00:09:13;6.82;;;3.35;;
43248;SDS011;29216;51.248;6.808;2024-02-14T00:11:39;4.70;;;3.00;;
43248;SDS011;29216;51.248;6.808;2024-02-14T00:14:05;7.32;;;3.00;;
43248;SDS011;29216;51.248;6.808;2024-02-14T00:16:32;4.35;;;2.83;;
43248;SDS011;29216;51.248;6.808;2024-02-14T00:18:58;6.38;;;2.92;;
43248;SDS011;29216;51.248;6.808;2024-02-14T00:21:24;4.80;;;2.95;;
43248;SDS011;29216;51.248;6.808;2024-02-14T00:23:50;6.15;;;2.80;;
43248;SDS011;29216;51.248;6.808;2024-02-14T00:26:16;5.22;;;3.80;;
43248;SDS011;29216;51.248;6.808;2024-02-14T00:28:43;6.20;;;3.17;;
43248;SDS011;29216;51.248;6.808;2024-02-14T00:31:09;4.22;;;2.58;;
43248;SDS011;29216;51.248;6.808;2024-02-14T00:33:34;6.35;;;2.50;;
43248;SDS011;29216;51.248;6.808;2024-02-14T00:36:00;5.82;;;3.00;;
43248;SDS011;29216;51.248;6.808;2024-02-14T00:38:26;5.55;;;2.42;;
43248;SDS011;29216;51.248;6.808;2024-02-14T00:40:52;4.95;;;2.35;;
43248;SDS011;29216;51.248;6.808;2024-02-14T00:43:18;3.80;;;2.25;;
43248;SDS011;29216;51.248;6.808;2024-02-14T00:45:44;4.28;;;2.22;;
43248;SDS011;29216;51.248;6.808;2024-02-14T00:48:10;3.15;;;2.13;;
43248;SDS011;29216;51.248;6.808;2024-02-14T00:50:37;3.13;;;2.40;;
43248;SDS011;29216;51.248;6.808;2024-02-14T00:53:03;4.28;;;2.17;;
43248;SDS011;29216;51.248;6.808;2024-02-14T00:55:29;2.47;;;2.10;;
43248;SDS011;29216;51.248;6.808;2024-02-14T00:57:55;5.35;;;2.60;;
43248;SDS011;29216;51.248;6.808;2024-02-14T01:00:21;3.70;;;2.25;;
43248;SDS011;29216;51.248;6.808;2024-02-14T01:02:47;3.67;;;2.00;;
43248;SDS011;29216;51.248;6.808;2024-02-14T01:05:13;4.00;;;2.28;;
43248;SDS011;29216;51.248;6.808;2024-02-14T01:07:39;5.50;;;2.20;;
43248;SDS011;29216;51.248;6.808;2024-02-14T01:10:05;5.18;;;2.30;;
43248;SDS011;29216;51.248;6.808;2024-02-14T01:12:31;4.32;;;2.03;;
43248;SDS011;29216;51.248;6.808;2024-02-14T01:14:57;6.60;;;2.42;;
43248;SDS011;29216;51.248;6.808;2024-02-14T01:17:23;5.28;;;2.25;;
43248;SDS011;29216;51.248;6.808;2024-02-14T01:19:50;7.25;;;2.28;;
43248;SDS011;29216;51.248;6.808;2024-02-14T01:22:16;2.35;;;2.10;;
43248;SDS011;29216;51.248;6.808;2024-02-14T01:24:43;3.05;;;2.05;;
43248;SDS011;29216;51.248;6.808;2024-02-14T01:27:09;3.90;;;2.03;;
43248;SDS011;29216;51.248;6.808;2024-02-14T01:29:35;3.22;;;2.00;;
43248;SDS011;29216;51.248;6.808;2024-02-14T01:32:01;5.50;;;2.42;;
43248;SDS011;29216;51.248;6.808;2024-02-14T01:34:29;4.50;;;1.90;;
43248;SDS011;29216;51.248;6.808;2024-02-14T01:36:55;4.07;;;2.00;;
43248;SDS011;29216;51.248;6.808;2024-02-14T01:39:21;3.35;;;1.92;;
43248;SDS011;29216;51.248;6.808;2024-02-14T01:41:47;5.80;;;2.13;;
43248;SDS011;29216;51.248;6.808;2024-02-14T01:44:17;4.25;;;2.15;;
43248;SDS011;29216;51.248;6.808;2024-02-14T01:46:43;3.28;;;2.03;;
43248;SDS011;29216;51.248;6.808;2024-02-14T01:49:10;4.28;;;2.17;;
43248;SDS011;29216;51.248;6.808;2024-02-14T01:51:40;4.47;;;2.10;;
43248;SDS011;29216;51.248;6.808;2024-02-14T01:54:09;2.97;;;1.83;;
43248;SDS011;29216;51.248;6.808;2024-02-14T01:56:36;3.65;;;2.00;;
43248;SDS011;29216;51.248;6.808;2024-02-14T01:59:02;2.40;;;1.85;;
43248;SDS011;29216;51.248;6.808;2024-02-14T02:01:30;3.95;;;2.10;;
43248;SDS011;29216;51.248;6.808;2024-02-14T02:03:56;3.80;;;2.03;;
43248;SDS011;29216;51.248;6.808;2024-02-14T02:06:22;2.15;;;1.85;;
43248;SDS011;29216;51.248;6.808;2024-02-14T02:08:48;4.10;;;2.00;;
43248;SDS011;29216;51.248;6.808;2024-02-14T02:11:15;4.80;;;2.17;;
43248;SDS011;29216;51.248;6.808;2024-02-14T02:13:41;5.70;;;1.90;;
43248;SDS011;29216;51.248;6.808;2024-02-14T02:16:07;2.67;;;1.67;;
43248;SDS011;29216;51.248;6.808;2024-02-14T02:18:33;2.03;;;1.90;;
43248;SDS011;29216;51.248;6.808;2024-02-14T02:20:59;2.72;;;1.90;;
43248;SDS011;29216;51.248;6.808;2024-02-14T02:23:25;3.60;;;2.00;;
43248;SDS011;29216;51.248;6.808;2024-02-14T02:25:51;2.60;;;1.95;;
43248;SDS011;29216;51.248;6.808;2024-02-14T02:28:17;2.78;;;1.90;;
43248;SDS011;29216;51.248;6.808;2024-02-14T02:30:43;1.90;;;1.70;;
43248;SDS011;29216;51.248;6.808;2024-02-14T02:33:11;1.88;;;1.70;;
43248;SDS011;29216;51.248;6.808;2024-02-14T02:35:39;4.25;;;1.70;;
43248;SDS011;29216;51.248;6.808;2024-02-14T02:38:05;2.72;;;2.05;;
43248;SDS011;29216;51.248;6.808;2024-02-14T02:40:31;4.45;;;2.00;;
43248;SDS011;29216;51.248;6.808;2024-02-14T02:42:57;5.35;;;2.10;;
43248;SDS011;29216;51.248;6.808;2024-02-14T02:45:24;2.42;;;1.70;;
43248;SDS011;29216;51.248;6.808;2024-02-14T02:47:49;2.08;;;1.77;;
43248;SDS011;29216;51.248;6.808;2024-02-14T02:50:20;4.68;;;1.88;;
43248;SDS011;29216;51.248;6.808;2024-02-14T02:52:47;2.28;;;1.77;;
43248;SDS011;29216;51.248;6.808;2024-02-14T02:55:13;2.53;;;1.80;;
43248;SDS011;29216;51.248;6.808;2024-02-14T02:57:42;3.03;;;1.80;;
43248;SDS011;29216;51.248;6.808;2024-02-14T03:00:08;4.07;;;1.85;;
43248;SDS011;29216;51.248;6.808;2024-02-14T03:02:36;3.42;;;1.90;;
43248;SDS011;29216;51.248;6.808;2024-02-14T03:05:12;4.03;;;1.73;;
43248;SDS011;29216;51.248;6.808;2024-02-14T03:07:44;4.82;;;1.92;;
43248;SDS011;29216;51.248;6.808;2024-02-14T03:10:12;3.47;;;1.90;;
43248;SDS011;29216;51.248;6.808;2024-02-14T03:12:39;2.35;;;1.77;;
43248;SDS011;29216;51.248;6.808;2024-02-14T03:15:05;2.95;;;2.00;;
43248;SDS011;29216;51.248;6.808;2024-02-14T03:17:35;4.43;;;2.00;;
43248;SDS011;29216;51.248;6.808;2024-02-14T03:20:01;5.72;;;2.00;;
43248;SDS011;29216;51.248;6.808;2024-02-14T03:22:27;3.75;;;1.90;;
43248;SDS011;29216;51.248;6.808;2024-02-14T03:24:53;2.78;;;1.75;;
43248;SDS011;29216;51.248;6.808;2024-02-14T03:27:19;2.17;;;1.85;;
43248;SDS011;29216;51.248;6.808;2024-02-14T03:29:48;3.20;;;2.17;;
43248;SDS011;29216;51.248;6.808;2024-02-14T03:32:15;3.03;;;1.60;;
43248;SDS011;29216;51.248;6.808;2024-02-14T03:34:42;3.10;;;2.00;;
43248;SDS011;29216;51.248;6.808;2024-02-14T03:37:08;6.30;;;1.77;;
43248;SDS011;29216;51.248;6.808;2024-02-14T03:39:34;3.33;;;2.20;;
43248;SDS011;29216;51.248;6.808;2024-02-14T03:42:00;3.13;;;1.70;;
43248;SDS011;29216;51.248;6.808;2024-02-14T03:44:31;2.47;;;1.80;;
43248;SDS011;29216;51.248;6.808;2024-02-14T03:46:57;3.03;;;1.98;;
43248;SDS011;29216;51.248;6.808;2024-02-14T03:49:23;3.92;;;2.03;;
43248;SDS011;29216;51.248;6.808;2024-02-14T03:51:50;2.92;;;2.00;;
43248;SDS011;29216;51.248;6.808;2024-02-14T03:54:19;4.13;;;2.20;;
43248;SDS011;29216;51.248;6.808;2024-02-14T03:56:45;3.83;;;2.08;;
43248;SDS011;29216;51.248;6.808;2024-02-14T03:59:11;3.95;;;1.95;;
43248;SDS011;29216;51.248;6.808;2024-02-14T04:01:37;2.08;;;1.88;;
43248;SDS011;29216;51.248;6.808;2024-02-14T04:04:03;5.88;;;2.10;;
43248;SDS011;29216;51.248;6.808;2024-02-14T04:06:30;2.22;;;2.03;;
43248;SDS011;29216;51.248;6.808;2024-02-14T04:08:57;2.60;;;2.17;;
43248;SDS011;29216;51.248;6.808;2024-02-14T04:11:23;3.53;;;1.95;;
43248;SDS011;29216;51.248;6.808;2024-02-14T04:13:49;4.20;;;2.13;;
43248;SDS011;29216;51.248;6.808;2024-02-14T04:16:18;9.27;;;3.15;;
43248;SDS011;29216;51.248;6.808;2024-02-14T04:18:45;2.83;;;2.00;;
43248;SDS011;29216;51.248;6.808;2024-02-14T04:21:11;3.25;;;1.98;;
43248;SDS011;29216;51.248;6.808;2024-02-14T04:23:37;5.82;;;2.25;;
43248;SDS011;29216;51.248;6.808;2024-02-14T04:26:05;2.92;;;1.90;;
43248;SDS011;29216;51.248;6.808;2024-02-14T04:28:31;3.78;;;2.10;;
43248;SDS011;29216;51.248;6.808;2024-02-14T04:30:57;5.15;;;2.50;;
43248;SDS011;29216;51.248;6.808;2024-02-14T04:33:23;3.70;;;1.95;;
43248;SDS011;29216;51.248;6.808;2024-02-14T04:35:49;3.20;;;2.05;;
43248;SDS011;29216;51.248;6.808;2024-02-14T04:38:15;3.90;;;2.10;;
43248;SDS011;29216;51.248;6.808;2024-02-14T04:40:43;3.95;;;2.10;;
43248;SDS011;29216;51.248;6.808;2024-02-14T04:43:09;3.10;;;1.92;;
43248;SDS011;29216;51.248;6.808;2024-02-14T04:45:35;4.60;;;2.13;;
43248;SDS011;29216;51.248;6.808;2024-02-14T04:48:01;1.95;;;1.85;;
43248;SDS011;29216;51.248;6.808;2024-02-14T04:50:29;3.28;;;2.10;;
43248;SDS011;29216;51.248;6.808;2024-02-14T04:52:56;2.50;;;2.30;;
43248;SDS011;29216;51.248;6.808;2024-02-14T04:55:22;2.80;;;2.10;;
43248;SDS011;29216;51.248;6.808;2024-02-14T04:57:48;3.55;;;2.20;;
43248;SDS011;29216;51.248;6.808;2024-02-14T05:00:14;2.58;;;2.05;;
43248;SDS011;29216;51.248;6.808;2024-02-14T05:02:40;2.15;;;1.92;;
43248;SDS011;29216;51.248;6.808;2024-02-14T05:05:06;2.35;;;2.15;;
43248;SDS011;29216;51.248;6.808;2024-02-14T05:07:33;2.60;;;2.15;;
43248;SDS011;29216;51.248;6.808;2024-02-14T05:09:59;3.70;;;1.90;;
43248;SDS011;29216;51.248;6.808;2024-02-14T05:12:25;3.95;;;2.08;;
43248;SDS011;29216;51.248;6.808;2024-02-14T05:14:52;4.05;;;2.10;;
43248;SDS011;29216;51.248;6.808;2024-02-14T05:17:18;3.03;;;2.00;;
43248;SDS011;29216;51.248;6.808;2024-02-14T05:19:44;3.60;;;1.95;;
43248;SDS011;29216;51.248;6.808;2024-02-14T05:22:10;2.63;;;2.00;;
43248;SDS011;29216;51.248;6.808;2024-02-14T05:24:36;4.32;;;2.35;;
43248;SDS011;29216;51.248;6.808;2024-02-14T05:27:03;4.45;;;2.25;;
43248;SDS011;29216;51.248;6.808;2024-02-14T05:29:30;3.13;;;2.10;;
43248;SDS011;29216;51.248;6.808;2024-02-14T05:31:56;3.35;;;2.47;;
43248;SDS011;29216;51.248;6.808;2024-02-14T05:34:23;2.30;;;2.10;;
43248;SDS011;29216;51.248;6.808;2024-02-14T05:36:49;5.75;;;2.50;;
43248;SDS011;29216;51.248;6.808;2024-02-14T05:39:15;4.03;;;2.13;;
43248;SDS011;29216;51.248;6.808;2024-02-14T05:41:42;4.32;;;2.30;;
43248;SDS011;29216;51.248;6.808;2024-02-14T05:44:08;3.75;;;2.17;;
43248;SDS011;29216;51.248;6.808;2024-02-14T05:46:34;6.72;;;2.40;;
43248;SDS011;29216;51.248;6.808;2024-02-14T05:49:00;4.85;;;2.35;;
43248;SDS011;29216;51.248;6.808;2024-02-14T05:51:26;3.22;;;2.55;;
43248;SDS011;29216;51.248;6.808;2024-02-14T05:53:52;7.40;;;3.30;;
43248;SDS011;29216;51.248;6.808;2024-02-14T05:56:18;4.93;;;2.70;;
43248;SDS011;29216;51.248;6.808;2024-02-14T05:58:44;3.65;;;2.63;;
43248;SDS011;29216;51.248;6.808;2024-02-14T06:01:10;4.50;;;2.60;;
43248;SDS011;29216;51.248;6.808;2024-02-14T06:03:37;4.13;;;2.60;;
43248;SDS011;29216;51.248;6.808;2024-02-14T06:06:03;4.18;;;2.40;;
43248;SDS011;29216;51.248;6.808;2024-02-14T06:08:29;7.57;;;2.50;;
43248;SDS011;29216;51.248;6.808;2024-02-14T06:10:55;3.70;;;2.28;;
43248;SDS011;29216;51.248;6.808;2024-02-14T06:13:21;3.75;;;2.55;;
43248;SDS011;29216;51.248;6.808;2024-02-14T06:15:47;2.72;;;2.13;;
43248;SDS011;29216;51.248;6.808;2024-02-14T06:18:13;2.90;;;2.50;;
43248;SDS011;29216;51.248;6.808;2024-02-14T06:20:39;4.68;;;2.60;;
43248;SDS011;29216;51.248;6.808;2024-02-14T06:23:05;4.03;;;2.60;;
43248;SDS011;29216;51.248;6.808;2024-02-14T06:25:32;4.10;;;2.42;;
43248;SDS011;29216;51.248;6.808;2024-02-14T06:27:58;5.07;;;2.83;;
43248;SDS011;29216;51.248;6.808;2024-02-14T06:30:24;3.50;;;2.55;;
43248;SDS011;29216;51.248;6.808;2024-02-14T06:32:50;3.78;;;2.40;;
43248;SDS011;29216;51.248;6.808;2024-02-14T06:35:16;5.15;;;2.60;;
43248;SDS011;29216;51.248;6.808;2024-02-14T06:37:44;5.13;;;2.55;;
43248;SDS011;29216;51.248;6.808;2024-02-14T06:40:10;4.47;;;2.60;;
43248;SDS011;29216;51.248;6.808;2024-02-14T06:42:36;3.63;;;2.50;;
43248;SDS011;29216;51.248;6.808;2024-02-14T06:45:02;3.30;;;2.38;;
43248;SDS011;29216;51.248;6.808;2024-02-14T06:47:28;6.53;;;2.60;;
43248;SDS011;29216;51.248;6.808;2024-02-14T06:49:58;3.45;;;2.20;;
43248;SDS011;29216;51.248;6.808;2024-02-14T06:52:24;5.57;;;2.40;;
43248;SDS011;29216;51.248;6.808;2024-02-14T06:54:50;3.22;;;2.40;;
43248;SDS011;29216;51.248;6.808;2024-02-14T06:57:16;6.45;;;2.50;;
43248;SDS011;29216;51.248;6.808;2024-02-14T06:59:42;4.82;;;2.33;;
43248;SDS011;29216;51.248;6.808;2024-02-14T07:02:09;4.60;;;1.98;;
43248;SDS011;29216;51.248;6.808;2024-02-14T07:04:35;3.05;;;2.40;;
43248;SDS011;29216;51.248;6.808;2024-02-14T07:07:02;3.80;;;2.30;;
43248;SDS011;29216;51.248;6.808;2024-02-14T07:09:28;4.47;;;2.40;;
43248;SDS011;29216;51.248;6.808;2024-02-14T07:11:54;3.58;;;2.40;;
43248;SDS011;29216;51.248;6.808;2024-02-14T07:14:22;4.28;;;2.17;;
43248;SDS011;29216;51.248;6.808;2024-02-14T07:16:48;4.68;;;2.50;;
43248;SDS011;29216;51.248;6.808;2024-02-14T07:19:14;2.53;;;2.15;;
43248;SDS011;29216;51.248;6.808;2024-02-14T07:21:40;4.05;;;2.38;;
43248;SDS011;29216;51.248;6.808;2024-02-14T07:24:06;4.82;;;2.58;;
43248;SDS011;29216;51.248;6.808;2024-02-14T07:26:32;6.65;;;2.58;;
43248;SDS011;29216;51.248;6.808;2024-02-14T07:28:58;6.95;;;2.47;;
43248;SDS011;29216;51.248;6.808;2024-02-14T07:31:27;5.05;;;2.33;;
43248;SDS011;29216;51.248;6.808;2024-02-14T07:33:55;4.22;;;2.35;;
43248;SDS011;29216;51.248;6.808;2024-02-14T07:36:21;5.20;;;2.30;;
43248;SDS011;29216;51.248;6.808;2024-02-14T07:38:47;3.85;;;2.38;;
43248;SDS011;29216;51.248;6.808;2024-02-14T07:41:13;4.95;;;2.45;;
43248;SDS011;29216;51.248;6.808;2024-02-14T07:43:39;5.55;;;2.50;;
43248;SDS011;29216;51.248;6.808;2024-02-14T07:46:05;7.35;;;2.53;;
43248;SDS011;29216;51.248;6.808;2024-02-14T07:48:32;6.78;;;2.40;;
43248;SDS011;29216;51.248;6.808;2024-02-14T07:50:58;3.50;;;2.17;;
43248;SDS011;29216;51.248;6.808;2024-02-14T07:53:24;3.75;;;2.92;;
43248;SDS011;29216;51.248;6.808;2024-02-14T07:55:51;3.72;;;2.00;;
43248;SDS011;29216;51.248;6.808;2024-02-14T07:58:19;3.90;;;2.30;;
43248;SDS011;29216;51.248;6.808;2024-02-14T08:00:45;4.68;;;2.35;;
43248;SDS011;29216;51.248;6.808;2024-02-14T08:03:11;4.05;;;2.30;;
43248;SDS011;29216;51.248;6.808;2024-02-14T08:05:38;4.10;;;2.40;;
43248;SDS011;29216;51.248;6.808;2024-02-14T08:08:06;6.18;;;2.97;;
43248;SDS011;29216;51.248;6.808;2024-02-14T08:10:32;4.97;;;2.20;;
43248;SDS011;29216;51.248;6.808;2024-02-14T08:12:58;4.60;;;2.80;;
43248;SDS011;29216;51.248;6.808;2024-02-14T08:15:24;10.25;;;2.58;;
43248;SDS011;29216;51.248;6.808;2024-02-14T08:17:50;6.65;;;2.42;;
43248;SDS011;29216;51.248;6.808;2024-02-14T08:20:19;4.03;;;2.20;;
43248;SDS011;29216;51.248;6.808;2024-02-14T08:22:45;6.18;;;2.45;;
43248;SDS011;29216;51.248;6.808;2024-02-14T08:25:11;5.40;;;2.67;;
43248;SDS011;29216;51.248;6.808;2024-02-14T08:27:37;7.10;;;2.58;;
43248;SDS011;29216;51.248;6.808;2024-02-14T08:30:03;4.85;;;2.22;;
43248;SDS011;29216;51.248;6.808;2024-02-14T08:32:31;3.47;;;2.40;;
43248;SDS011;29216;51.248;6.808;2024-02-14T08:34:57;3.92;;;2.30;;
43248;SDS011;29216;51.248;6.808;2024-02-14T08:37:23;5.30;;;2.70;;
43248;SDS011;29216;51.248;6.808;2024-02-14T08:39:50;5.05;;;2.30;;
43248;SDS011;29216;51.248;6.808;2024-02-14T08:42:16;4.53;;;2.50;;
43248;SDS011;29216;51.248;6.808;2024-02-14T08:44:42;3.75;;;2.40;;
43248;SDS011;29216;51.248;6.808;2024-02-14T08:47:08;5.80;;;3.35;;
43248;SDS011;29216;51.248;6.808;2024-02-14T08:49:34;4.40;;;2.63;;
43248;SDS011;29216;51.248;6.808;2024-02-14T08:52:00;4.78;;;2.55;;
43248;SDS011;29216;51.248;6.808;2024-02-14T08:54:26;2.72;;;2.25;;
43248;SDS011;29216;51.248;6.808;2024-02-14T08:56:53;7.07;;;2.28;;
43248;SDS011;29216;51.248;6.808;2024-02-14T08:59:20;4.93;;;2.08;;
43248;SDS011;29216;51.248;6.808;2024-02-14T09:01:47;5.10;;;2.80;;
43248;SDS011;29216;51.248;6.808;2024-02-14T09:04:13;3.83;;;2.00;;
43248;SDS011;29216;51.248;6.808;2024-02-14T09:06:39;6.20;;;2.40;;
43248;SDS011;29216;51.248;6.808;2024-02-14T09:09:06;4.70;;;2.20;;
43248;SDS011;29216;51.248;6.808;2024-02-14T09:11:34;3.80;;;1.90;;
43248;SDS011;29216;51.248;6.808;2024-02-14T09:14:00;3.05;;;2.17;;
43248;SDS011;29216;51.248;6.808;2024-02-14T09:16:31;4.20;;;2.08;;
43248;SDS011;29216;51.248;6.808;2024-02-14T09:18:57;3.83;;;2.05;;
43248;SDS011;29216;51.248;6.808;2024-02-14T09:21:23;5.68;;;2.25;;
43248;SDS011;29216;51.248;6.808;2024-02-14T09:23:49;6.07;;;2.20;;
43248;SDS011;29216;51.248;6.808;2024-02-14T09:26:15;4.88;;;2.25;;
43248;SDS011;29216;51.248;6.808;2024-02-14T09:28:41;4.18;;;2.13;;
43248;SDS011;29216;51.248;6.808;2024-02-14T09:31:07;5.28;;;2.30;;
43248;SDS011;29216;51.248;6.808;2024-02-14T09:33:36;4.28;;;2.15;;
43248;SDS011;29216;51.248;6.808;2024-02-14T09:36:02;2.90;;;2.10;;
43248;SDS011;29216;51.248;6.808;2024-02-14T09:38:29;5.60;;;2.17;;
43248;SDS011;29216;51.248;6.808;2024-02-14T09:40:58;5.03;;;2.33;;
43248;SDS011;29216;51.248;6.808;2024-02-14T09:43:38;14.18;;;2.63;;
43248;SDS011;29216;51.248;6.808;2024-02-14T09:46:06;4.05;;;2.13;;
43248;SDS011;29216;51.248;6.808;2024-02-14T09:48:32;3.80;;;2.03;;
43248;SDS011;29216;51.248;6.808;2024-02-14T09:50:58;5.82;;;2.50;;
43248;SDS011;29216;51.248;6.808;2024-02-14T09:53:25;8.90;;;2.20;;
43248;SDS011;29216;51.248;6.808;2024-02-14T09:55:51;5.78;;;2.60;;
43248;SDS011;29216;51.248;6.808;2024-02-14T09:58:18;8.63;;;2.30;;
43248;SDS011;29216;51.248;6.808;2024-02-14T10:00:45;4.80;;;2.20;;
43248;SDS011;29216;51.248;6.808;2024-02-14T10:03:11;3.78;;;2.03;;
43248;SDS011;29216;51.248;6.808;2024-02-14T10:05:37;5.93;;;1.90;;
43248;SDS011;29216;51.248;6.808;2024-02-14T10:08:03;5.38;;;2.20;;
43248;SDS011;29216;51.248;6.808;2024-02-14T10:10:31;5.07;;;2.10;;
43248;SDS011;29216;51.248;6.808;2024-02-14T10:12:59;6.57;;;2.35;;
43248;SDS011;29216;51.248;6.808;2024-02-14T10:15:25;6.72;;;2.20;;
43248;SDS011;29216;51.248;6.808;2024-02-14T10:17:51;5.88;;;2.17;;
43248;SDS011;29216;51.248;6.808;2024-02-14T10:20:18;3.58;;;2.08;;
43248;SDS011;29216;51.248;6.808;2024-02-14T10:22:46;3.30;;;2.10;;
43248;SDS011;29216;51.248;6.808;2024-02-14T10:25:13;3.05;;;1.70;;
43248;SDS011;29216;51.248;6.808;2024-02-14T10:27:40;4.28;;;2.08;;
43248;SDS011;29216;51.248;6.808;2024-02-14T10:32:35;5.55;;;1.80;;
43248;SDS011;29216;51.248;6.808;2024-02-14T10:35:03;5.90;;;2.00;;
43248;SDS011;29216;51.248;6.808;2024-02-14T10:37:29;4.72;;;2.10;;
43248;SDS011;29216;51.248;6.808;2024-02-14T10:39:56;5.88;;;2.25;;
43248;SDS011;29216;51.248;6.808;2024-02-14T10:42:22;4.28;;;2.10;;
43248;SDS011;29216;51.248;6.808;2024-02-14T10:44:48;7.70;;;2.22;;
43248;SDS011;29216;51.248;6.808;2024-02-14T10:47:19;5.15;;;2.08;;
43248;SDS011;29216;51.248;6.808;2024-02-14T10:49:46;8.00;;;2.22;;
43248;SDS011;29216;51.248;6.808;2024-02-14T10:52:12;9.85;;;2.53;;
43248;SDS011;29216;51.248;6.808;2024-02-14T10:54:39;4.28;;;2.20;;
43248;SDS011;29216;51.248;6.808;2024-02-14T10:57:06;4.93;;;2.00;;
43248;SDS011;29216;51.248;6.808;2024-02-14T10:59:36;4.57;;;2.00;;
43248;SDS011;29216;51.248;6.808;2024-02-14T11:02:04;5.88;;;2.00;;
43248;SDS011;29216;51.248;6.808;2024-02-14T11:04:30;4.70;;;2.00;;
43248;SDS011;29216;51.248;6.808;2024-02-14T11:06:56;4.10;;;1.80;;
43248;SDS011;29216;51.248;6.808;2024-02-14T11:09:35;2.90;;;1.80;;
43248;SDS011;29216;51.248;6.808;2024-02-14T11:12:01;7.88;;;2.20;;
43248;SDS011;29216;51.248;6.808;2024-02-14T11:14:31;5.95;;;1.95;;
43248;SDS011;29216;51.248;6.808;2024-02-14T11:17:02;3.30;;;2.00;;
43248;SDS011;29216;51.248;6.808;2024-02-14T11:19:31;7.82;;;2.13;;
43248;SDS011;29216;51.248;6.808;2024-02-14T11:21:58;4.20;;;1.95;;
43248;SDS011;29216;51.248;6.808;2024-02-14T11:24:26;4.50;;;2.30;;
43248;SDS011;29216;51.248;6.808;2024-02-14T11:26:55;5.75;;;2.25;;
43248;SDS011;29216;51.248;6.808;2024-02-14T11:29:28;5.68;;;2.13;;
43248;SDS011;29216;51.248;6.808;2024-02-14T11:31:57;3.55;;;2.05;;
43248;SDS011;29216;51.248;6.808;2024-02-14T11:34:24;5.35;;;2.45;;
43248;SDS011;29216;51.248;6.808;2024-02-14T11:36:51;3.95;;;1.80;;
43248;SDS011;29216;51.248;6.808;2024-02-14T11:39:17;3.70;;;1.92;;
43248;SDS011;29216;51.248;6.808;2024-02-14T11:41:43;2.42;;;1.90;;
43248;SDS011;29216;51.248;6.808;2024-02-14T11:44:09;5.70;;;2.10;;
43248;SDS011;29216;51.248;6.808;2024-02-14T11:46:36;3.13;;;1.98;;
43248;SDS011;29216;51.248;6.808;2024-02-14T11:49:03;3.47;;;1.80;;
43248;SDS011;29216;51.248;6.808;2024-02-14T11:51:30;5.85;;;2.03;;
43248;SDS011;29216;51.248;6.808;2024-02-14T11:54:00;6.57;;;2.17;;
43248;SDS011;29216;51.248;6.808;2024-02-14T11:56:35;4.40;;;2.00;;
43248;SDS011;29216;51.248;6.808;2024-02-14T11:59:01;5.15;;;1.70;;
43248;SDS011;29216;51.248;6.808;2024-02-14T12:01:28;3.47;;;1.92;;
43248;SDS011;29216;51.248;6.808;2024-02-14T12:03:55;3.97;;;1.90;;
43248;SDS011;29216;51.248;6.808;2024-02-14T12:06:22;5.15;;;1.75;;
43248;SDS011;29216;51.248;6.808;2024-02-14T12:08:48;5.80;;;2.13;;
43248;SDS011;29216;51.248;6.808;2024-02-14T12:11:14;2.50;;;1.80;;
43248;SDS011;29216;51.248;6.808;2024-02-14T12:13:40;3.05;;;1.75;;
43248;SDS011;29216;51.248;6.808;2024-02-14T12:16:08;4.88;;;1.90;;
43248;SDS011;29216;51.248;6.808;2024-02-14T12:18:35;7.40;;;1.90;;
43248;SDS011;29216;51.248;6.808;2024-02-14T12:21:04;4.50;;;1.80;;
43248;SDS011;29216;51.248;6.808;2024-02-14T12:23:32;3.88;;;1.75;;
43248;SDS011;29216;51.248;6.808;2024-02-14T12:26:02;4.25;;;2.22;;
43248;SDS011;29216;51.248;6.808;2024-02-14T12:28:29;6.15;;;2.58;;
43248;SDS011;29216;51.248;6.808;2024-02-14T12:30:56;5.05;;;1.77;;
43248;SDS011;29216;51.248;6.808;2024-02-14T12:33:22;3.60;;;1.95;;
43248;SDS011;29216;51.248;6.808;2024-02-14T12:35:49;4.50;;;2.30;;
43248;SDS011;29216;51.248;6.808;2024-02-14T12:38:16;5.97;;;2.53;;
43248;SDS011;29216;51.248;6.808;2024-02-14T12:40:42;4.68;;;2.20;;
43248;SDS011;29216;51.248;6.808;2024-02-14T12:43:09;5.93;;;2.53;;
43248;SDS011;29216;51.248;6.808;2024-02-14T12:45:39;5.45;;;2.20;;
43248;SDS011;29216;51.248;6.808;2024-02-14T12:48:05;4.00;;;2.28;;
43248;SDS011;29216;51.248;6.808;2024-02-14T12:50:33;4.38;;;2.20;;
43248;SDS011;29216;51.248;6.808;2024-02-14T12:52:59;4.38;;;2.28;;
43248;SDS011;29216;51.248;6.808;2024-02-14T12:55:25;3.63;;;2.13;;
43248;SDS011;29216;51.248;6.808;2024-02-14T12:57:53;6.95;;;2.65;;
43248;SDS011;29216;51.248;6.808;2024-02-14T13:00:19;8.13;;;2.30;;
43248;SDS011;29216;51.248;6.808;2024-02-14T13:02:47;3.78;;;2.28;;
43248;SDS011;29216;51.248;6.808;2024-02-14T13:05:13;4.13;;;2.22;;
43248;SDS011;29216;51.248;6.808;2024-02-14T13:07:39;6.13;;;2.33;;
43248;SDS011;29216;51.248;6.808;2024-02-14T13:10:06;4.65;;;2.10;;
43248;SDS011;29216;51.248;6.808;2024-02-14T13:12:34;5.70;;;1.80;;
43248;SDS011;29216;51.248;6.808;2024-02-14T13:15:00;2.85;;;2.00;;
43248;SDS011;29216;51.248;6.808;2024-02-14T13:17:27;9.82;;;2.10;;
43248;SDS011;29216;51.248;6.808;2024-02-14T13:19:54;5.55;;;2.15;;
43248;SDS011;29216;51.248;6.808;2024-02-14T13:22:20;5.20;;;2.30;;
43248;SDS011;29216;51.248;6.808;2024-02-14T13:24:46;7.60;;;2.38;;
43248;SDS011;29216;51.248;6.808;2024-02-14T13:27:12;5.65;;;2.17;;
43248;SDS011;29216;51.248;6.808;2024-02-14T13:29:39;5.53;;;2.08;;
43248;SDS011;29216;51.248;6.808;2024-02-14T13:32:05;3.53;;;2.15;;
43248;SDS011;29216;51.248;6.808;2024-02-14T13:34:32;2.90;;;1.85;;
43248;SDS011;29216;51.248;6.808;2024-02-14T13:36:59;4.60;;;1.90;;
43248;SDS011;29216;51.248;6.808;2024-02-14T13:39:25;4.57;;;2.00;;
43248;SDS011;29216;51.248;6.808;2024-02-14T13:41:51;5.63;;;1.85;;
43248;SDS011;29216;51.248;6.808;2024-02-14T13:44:17;5.43;;;1.92;;
43248;SDS011;29216;51.248;6.808;2024-02-14T13:46:44;6.10;;;3.33;;
43248;SDS011;29216;51.248;6.808;2024-02-14T13:49:15;3.45;;;1.83;;
43248;SDS011;29216;51.248;6.808;2024-02-14T13:51:46;3.45;;;2.30;;
43248;SDS011;29216;51.248;6.808;2024-02-14T13:54:12;5.05;;;2.38;;
43248;SDS011;29216;51.248;6.808;2024-02-14T13:56:39;2.53;;;2.00;;
43248;SDS011;29216;51.248;6.808;2024-02-14T13:59:05;3.42;;;1.98;;
43248;SDS011;29216;51.248;6.808;2024-02-14T14:01:31;6.28;;;2.30;;
43248;SDS011;29216;51.248;6.808;2024-02-14T14:03:57;2.05;;;1.90;;
43248;SDS011;29216;51.248;6.808;2024-02-14T14:06:23;3.60;;;2.10;;
43248;SDS011;29216;51.248;6.808;2024-02-14T14:08:50;3.03;;;2.10;;
43248;SDS011;29216;51.248;6.808;2024-02-14T14:11:16;2.45;;;2.17;;
43248;SDS011;29216;51.248;6.808;2024-02-14T14:13:43;2.63;;;2.08;;
43248;SDS011;29216;51.248;6.808;2024-02-14T14:16:09;2.47;;;1.90;;
43248;SDS011;29216;51.248;6.808;2024-02-14T14:18:36;2.05;;;1.83;;
43248;SDS011;29216;51.248;6.808;2024-02-14T14:21:02;1.73;;;1.50;;
43248;SDS011;29216;51.248;6.808;2024-02-14T14:23:28;2.08;;;1.50;;
43248;SDS011;29216;51.248;6.808;2024-02-14T14:25:54;2.03;;;1.50;;
43248;SDS011;29216;51.248;6.808;2024-02-14T14:28:20;1.48;;;1.33;;
43248;SDS011;29216;51.248;6.808;2024-02-14T14:30:58;1.02;;;1.02;;
43248;SDS011;29216;51.248;6.808;2024-02-14T14:33:26;1.35;;;1.25;;
43248;SDS011;29216;51.248;6.808;2024-02-14T14:35:52;2.53;;;1.33;;
43248;SDS011;29216;51.248;6.808;2024-02-14T14:38:19;1.65;;;1.55;;
43248;SDS011;29216;51.248;6.808;2024-02-14T14:40:46;2.08;;;1.30;;
43248;SDS011;29216;51.248;6.808;2024-02-14T14:43:12;2.67;;;1.23;;
43248;SDS011;29216;51.248;6.808;2024-02-14T14:45:38;1.17;;;1.13;;
43248;SDS011;29216;51.248;6.808;2024-02-14T14:48:06;3.03;;;1.20;;